createdAt,value
2022-09-22T00:01:44.059Z,99.90
2022-09-22T00:04:14.354Z,99.90
2022-09-22T00:06:47.402Z,99.90
2022-09-22T00:09:18.565Z,99.90
2022-09-22T00:11:48.992Z,99.90
2022-09-22T00:14:20.188Z,99.90
2022-09-22T00:16:51.929Z,99.90
2022-09-22T00:19:22.550Z,99.90
2022-09-22T00:21:52.012Z,99.90
2022-09-22T00:24:22.860Z,99.90
2022-09-22T00:26:51.803Z,99.90
2022-09-22T00:29:20.927Z,99.90
2022-09-22T00:31:51.189Z,99.90
2022-09-22T00:34:22.380Z,99.90
2022-09-22T00:36:51.716Z,99.90
2022-09-22T00:39:20.464Z,99.90
2022-09-22T00:41:51.882Z,99.90
2022-09-22T00:44:34.330Z,99.90
2022-09-22T00:47:12.586Z,99.90
2022-09-22T00:49:46.615Z,99.90
2022-09-22T00:52:18.351Z,99.90
2022-09-22T00:54:47.903Z,99.90
2022-09-22T00:57:19.236Z,99.90
2022-09-22T00:59:50.464Z,99.90
2022-09-22T01:02:21.119Z,99.90
2022-09-22T01:04:52.694Z,99.90
2022-09-22T01:07:25.995Z,99.90
2022-09-22T01:09:55.717Z,99.90
2022-09-22T01:12:25.910Z,99.90
2022-09-22T01:15:09.185Z,99.90
2022-09-22T01:17:52.083Z,99.90
2022-09-22T01:20:50.137Z,99.90
2022-09-22T01:23:54.338Z,99.90
2022-09-22T01:26:50.705Z,99.90
2022-09-22T01:29:51.860Z,99.90
2022-09-22T01:32:29.740Z,99.90
2022-09-22T01:35:05.583Z,99.90
2022-09-22T01:37:43.564Z,99.90
2022-09-22T01:40:17.784Z,99.90
2022-09-22T01:42:51.336Z,99.90
2022-09-22T01:45:24.575Z,99.90
2022-09-22T01:47:58.996Z,99.90
2022-09-22T01:50:33.108Z,99.90
2022-09-22T01:53:06.476Z,99.90
2022-09-22T01:55:39.425Z,99.90
2022-09-22T01:58:12.789Z,99.90
2022-09-22T02:00:45.524Z,99.90
2022-09-22T02:03:21.329Z,99.90
2022-09-22T02:05:55.316Z,99.90
2022-09-22T02:08:32.714Z,99.90
2022-09-22T02:11:09.805Z,99.90
2022-09-22T02:13:38.728Z,99.90
2022-09-22T02:16:08.294Z,99.90
2022-09-22T02:18:45.152Z,99.90
2022-09-22T02:21:15.613Z,99.90
2022-09-22T02:23:46.855Z,99.90
2022-09-22T02:26:23.697Z,99.90
2022-09-22T02:28:54.974Z,99.90
2022-09-22T02:31:26.680Z,99.90
2022-09-22T02:33:57.602Z,99.90
2022-09-22T02:36:45.312Z,99.90
2022-09-22T02:39:21.175Z,99.90
2022-09-22T02:42:03.983Z,99.90
2022-09-22T02:44:43.062Z,99.90
2022-09-22T02:47:15.309Z,99.90
2022-09-22T02:49:46.184Z,99.90
2022-09-22T02:52:15.902Z,99.90
2022-09-22T02:54:44.607Z,99.90
2022-09-22T02:57:13.543Z,99.90
2022-09-22T02:59:42.295Z,99.90
2022-09-22T03:02:11.043Z,99.90
2022-09-22T03:04:39.746Z,99.90
2022-09-22T03:07:09.998Z,99.90
2022-09-22T03:09:38.970Z,99.90
2022-09-22T03:12:07.849Z,99.90
2022-09-22T03:14:36.672Z,99.90
2022-09-22T03:17:05.498Z,99.90
2022-09-22T03:19:34.230Z,99.90
2022-09-22T03:22:03.022Z,99.90
2022-09-22T03:24:33.114Z,99.90
2022-09-22T03:27:01.971Z,99.90
2022-09-22T03:29:30.699Z,99.90
2022-09-22T03:31:59.409Z,99.90
2022-09-22T03:34:28.094Z,99.90
2022-09-22T03:36:56.683Z,99.90
2022-09-22T03:39:25.281Z,99.90
2022-09-22T03:41:55.457Z,99.90
2022-09-22T03:44:26.557Z,99.90
2022-09-22T03:46:55.380Z,99.90
2022-09-22T03:49:24.899Z,99.90
2022-09-22T03:51:54.745Z,99.90
2022-09-22T03:54:23.412Z,99.90
2022-09-22T03:56:52.416Z,99.90
2022-09-22T03:59:22.486Z,99.90
2022-09-22T04:01:54.807Z,99.90
2022-09-22T04:04:26.596Z,99.90
2022-09-22T04:06:55.773Z,99.90
2022-09-22T04:09:24.610Z,99.90
2022-09-22T04:11:53.541Z,99.90
2022-09-22T04:14:23.710Z,99.90
2022-09-22T04:16:53.046Z,99.90
2022-09-22T04:19:22.911Z,99.90
2022-09-22T04:21:56.861Z,99.90
2022-09-22T04:24:26.214Z,99.90
2022-09-22T04:27:18.577Z,99.90
2022-09-22T04:29:44.877Z,99.90
2022-09-22T04:32:14.533Z,99.90
2022-09-22T04:34:43.790Z,99.90
2022-09-22T04:37:12.561Z,99.90
2022-09-22T04:39:41.184Z,99.90
2022-09-22T04:42:10.383Z,99.90
2022-09-22T04:44:38.919Z,99.90
2022-09-22T04:47:08.904Z,99.90
2022-09-22T04:49:37.508Z,99.90
2022-09-22T04:52:06.462Z,99.90
2022-09-22T04:54:35.017Z,99.90
2022-09-22T04:57:03.915Z,99.90
2022-09-22T04:59:32.475Z,99.90
2022-09-22T05:02:01.540Z,99.90
2022-09-22T05:04:31.464Z,99.90
2022-09-22T05:06:59.958Z,99.90
2022-09-22T05:09:28.531Z,99.90
2022-09-22T05:12:01.358Z,99.90
2022-09-22T05:14:32.597Z,99.90
2022-09-22T05:17:01.116Z,99.90
2022-09-22T05:19:31.058Z,99.90
2022-09-22T05:22:00.202Z,99.90
2022-09-22T05:24:28.705Z,99.90
2022-09-22T05:26:57.343Z,99.90
2022-09-22T05:29:27.895Z,99.90
2022-09-22T05:31:56.799Z,99.90
2022-09-22T05:34:25.547Z,99.90
2022-09-22T05:36:55.471Z,99.90
2022-09-22T05:39:24.006Z,99.90
2022-09-22T05:41:52.586Z,99.90
2022-09-22T05:44:21.895Z,99.90
2022-09-22T05:46:50.471Z,99.90
2022-09-22T05:49:18.954Z,99.90
2022-09-22T05:51:47.581Z,99.90
2022-09-22T05:54:22.567Z,99.90
2022-09-22T05:56:51.957Z,99.90
2022-09-22T05:59:20.512Z,99.90
2022-09-22T06:01:49.086Z,99.90
2022-09-22T06:04:18.249Z,99.90
2022-09-22T06:06:47.766Z,99.90
2022-09-22T06:09:17.648Z,99.90
2022-09-22T06:11:46.194Z,99.90
2022-09-22T06:14:14.704Z,99.90
2022-09-22T06:16:44.035Z,99.90
2022-09-22T06:19:12.536Z,99.90
2022-09-22T06:21:41.094Z,99.90
2022-09-22T06:24:09.711Z,99.90
2022-09-22T06:26:39.581Z,99.90
2022-09-22T06:29:08.471Z,99.90
2022-09-22T06:31:37.050Z,99.90
2022-09-22T06:34:07.741Z,99.90
2022-09-22T06:36:36.403Z,99.90
2022-09-22T06:39:05.732Z,99.90
2022-09-22T06:41:35.075Z,99.90
2022-09-22T06:44:06.799Z,99.90
2022-09-22T06:46:35.606Z,99.90
2022-09-22T06:49:04.454Z,99.90
2022-09-22T06:51:34.584Z,99.90
2022-09-22T06:54:05.578Z,99.90
2022-09-22T06:56:37.710Z,99.90
2022-09-22T06:59:13.541Z,99.90
2022-09-22T07:01:43.103Z,99.90
2022-09-22T07:04:12.581Z,99.90
2022-09-22T07:06:52.363Z,99.90
2022-09-22T07:09:21.318Z,99.90
2022-09-22T07:11:50.277Z,99.90
2022-09-22T07:14:22.506Z,99.90
2022-09-22T07:16:52.586Z,99.90
2022-09-22T07:19:21.191Z,99.90
2022-09-22T07:21:49.782Z,99.90
2022-09-22T07:24:18.511Z,99.90
2022-09-22T07:26:47.155Z,99.90
2022-09-22T07:29:16.831Z,99.90
2022-09-22T07:31:46.761Z,99.90
2022-09-22T07:34:16.449Z,99.90
2022-09-22T07:36:45.084Z,99.90
2022-09-22T07:39:13.650Z,99.90
2022-09-22T07:41:45.041Z,99.90
2022-09-22T07:44:32.786Z,99.90
2022-09-22T07:47:03.410Z,99.90
2022-09-22T07:49:32.260Z,99.90
2022-09-22T07:52:00.979Z,99.90
2022-09-22T07:54:30.737Z,99.90
2022-09-22T07:56:59.393Z,99.90
2022-09-22T07:59:28.458Z,99.90
2022-09-22T08:01:57.273Z,99.90
2022-09-22T08:04:30.306Z,99.90
2022-09-22T08:06:58.805Z,99.90
2022-09-22T08:09:29.673Z,99.90
2022-09-22T08:11:58.272Z,99.90
2022-09-22T08:14:27.761Z,99.90
2022-09-22T08:16:56.299Z,99.90
2022-09-22T08:19:26.728Z,99.90
2022-09-22T08:21:55.282Z,99.90
2022-09-22T08:24:24.320Z,99.90
2022-09-22T08:26:55.779Z,99.90
2022-09-22T08:29:25.150Z,99.90
2022-09-22T08:31:54.259Z,99.90
2022-09-22T08:34:23.282Z,99.90
2022-09-22T08:36:53.263Z,99.90
2022-09-22T08:39:22.053Z,99.90
2022-09-22T08:42:05.849Z,99.90
2022-09-22T08:44:40.729Z,99.90
2022-09-22T08:47:17.381Z,99.90
2022-09-22T08:50:08.933Z,99.90
2022-09-22T08:52:43.611Z,99.90
2022-09-22T08:55:19.094Z,99.90
2022-09-22T08:58:01.920Z,99.90
2022-09-22T09:00:41.930Z,99.90
2022-09-22T09:03:26.009Z,99.90
2022-09-22T09:06:09.184Z,99.90
2022-09-22T09:08:59.100Z,99.90
2022-09-22T09:11:46.847Z,99.90
2022-09-22T09:14:30.433Z,99.90
2022-09-22T09:17:04.143Z,99.90
2022-09-22T09:19:37.807Z,99.90
2022-09-22T09:22:17.598Z,99.90
2022-09-22T09:27:42.858Z,99.90
2022-09-22T09:30:17.777Z,99.90
2022-09-22T09:32:51.537Z,99.90
2022-09-22T09:35:24.643Z,99.90
2022-09-22T09:37:55.405Z,99.90
2022-09-22T09:40:25.499Z,99.90
2022-09-22T09:43:01.646Z,99.90
2022-09-22T09:45:38.541Z,99.90
2022-09-22T09:48:22.753Z,99.90
2022-09-22T09:50:51.316Z,99.90
2022-09-22T09:53:31.862Z,99.90
2022-09-22T09:56:02.401Z,99.90
2022-09-22T09:58:48.296Z,99.90
2022-09-22T10:01:16.919Z,99.90
2022-09-22T10:03:54.640Z,99.90
2022-09-22T10:06:26.507Z,99.90
2022-09-22T10:08:55.426Z,99.90
2022-09-22T10:11:35.117Z,99.90
2022-09-22T10:14:04.408Z,99.90
2022-09-22T10:16:36.020Z,99.90
2022-09-22T10:19:23.729Z,99.90
2022-09-22T10:21:52.931Z,99.90
2022-09-22T10:24:31.793Z,99.90
2022-09-22T10:27:05.237Z,99.90
2022-09-22T10:29:36.016Z,96.50
2022-09-22T10:32:15.070Z,98.20
2022-09-22T10:37:26.628Z,96.60
2022-09-22T10:39:59.488Z,96.90
2022-09-22T10:42:36.605Z,95.60
2022-09-22T10:45:08.336Z,95.60
2022-09-22T10:47:52.654Z,93.90
2022-09-22T10:50:41.677Z,98.00
2022-09-22T10:53:29.060Z,98.30
2022-09-22T10:56:04.523Z,97.50
2022-09-22T10:58:52.448Z,99.50
2022-09-22T11:01:37.795Z,99.90
2022-09-22T11:04:35.676Z,99.90
2022-09-22T11:07:41.244Z,99.90
2022-09-22T11:10:35.082Z,99.90
2022-09-22T11:13:12.723Z,99.90
2022-09-22T11:16:04.938Z,99.90
2022-09-22T11:18:52.335Z,99.90
2022-09-22T11:21:35.412Z,99.90
2022-09-22T11:24:17.234Z,99.90
2022-09-22T11:26:49.115Z,99.90
2022-09-22T11:29:38.027Z,99.90
2022-09-22T11:32:26.783Z,99.90
2022-09-22T11:35:23.730Z,99.90
2022-09-22T11:38:05.814Z,99.90
2022-09-22T11:40:48.667Z,99.90
2022-09-22T11:43:34.306Z,99.90
2022-09-22T11:46:10.923Z,99.90
2022-09-22T11:49:06.917Z,99.90
2022-09-22T11:51:47.605Z,99.90
2022-09-22T11:54:35.646Z,99.90
2022-09-22T11:57:08.978Z,99.90
2022-09-22T11:59:43.146Z,99.90
2022-09-22T12:02:19.745Z,99.90
2022-09-22T12:04:54.266Z,99.90
2022-09-22T12:07:29.133Z,99.90
2022-09-22T12:10:02.152Z,99.90
2022-09-22T12:12:33.434Z,99.90
2022-09-22T12:15:09.029Z,99.90
2022-09-22T12:17:42.605Z,99.90
2022-09-22T12:20:34.624Z,98.10
2022-09-22T12:23:18.043Z,99.60
2022-09-22T12:25:49.556Z,98.30
2022-09-22T12:28:25.837Z,96.10
2022-09-22T12:31:05.355Z,97.70
2022-09-22T12:33:35.838Z,99.90
2022-09-22T12:36:07.494Z,99.80
2022-09-22T12:38:36.537Z,99.90
2022-09-22T12:41:06.030Z,98.70
2022-09-22T12:43:36.808Z,99.80
2022-09-22T12:46:15.918Z,99.80
2022-09-22T12:48:47.482Z,98.70
2022-09-22T12:51:30.847Z,97.70
2022-09-22T12:54:48.621Z,98.70
2022-09-22T12:57:30.798Z,97.90
2022-09-22T13:00:20.704Z,99.90
2022-09-22T13:02:50.204Z,95.60
2022-09-22T13:05:46.541Z,97.80
2022-09-22T13:08:24.243Z,96.80
2022-09-22T13:11:01.253Z,99.10
2022-09-22T13:13:52.590Z,96.10
2022-09-22T13:16:37.201Z,99.80
2022-09-22T13:19:14.812Z,95.10
2022-09-22T13:21:43.319Z,96.10
2022-09-22T13:24:26.588Z,94.70
2022-09-22T13:27:05.714Z,96.30
2022-09-22T13:29:35.019Z,95.20
2022-09-22T13:32:18.762Z,97.40
2022-09-22T13:34:47.974Z,97.40
2022-09-22T13:37:22.041Z,96.70
2022-09-22T13:39:55.399Z,98.10
2022-09-22T13:42:31.536Z,96.10
2022-09-22T13:45:03.899Z,99.60
2022-09-22T13:47:33.799Z,97.60
2022-09-22T13:50:04.843Z,98.80
2022-09-22T13:52:36.238Z,98.90
2022-09-22T13:55:10.801Z,97.80
2022-09-22T13:57:39.847Z,98.10
2022-09-22T14:00:18.689Z,96.90
2022-09-22T14:02:47.412Z,98.40
2022-09-22T14:05:21.753Z,96.10
2022-09-22T14:08:10.689Z,94.70
2022-09-22T14:10:43.498Z,93.70
2022-09-22T14:13:43.082Z,92.80
2022-09-22T14:16:16.412Z,95.30
2022-09-22T14:18:48.233Z,95.80
2022-09-22T14:21:17.407Z,97.00
2022-09-22T14:23:49.312Z,93.80
2022-09-22T14:26:27.659Z,95.70
2022-09-22T14:28:59.147Z,94.60
2022-09-22T14:31:32.274Z,97.10
2022-09-22T14:34:03.560Z,99.10
2022-09-22T14:36:32.206Z,95.80
2022-09-22T14:39:10.172Z,97.90
2022-09-22T14:41:50.267Z,97.90
2022-09-22T14:44:35.424Z,97.80
2022-09-22T14:47:19.487Z,98.30
2022-09-22T14:49:49.149Z,99.90
2022-09-22T14:52:27.949Z,99.90
2022-09-22T14:55:00.085Z,99.90
2022-09-22T14:57:30.551Z,99.90
2022-09-22T15:00:18.450Z,99.90
2022-09-22T15:02:52.546Z,99.90
2022-09-22T15:05:29.968Z,99.90
2022-09-22T15:07:59.452Z,99.90
2022-09-22T15:10:30.347Z,99.90
2022-09-22T15:13:19.908Z,99.90
2022-09-22T15:15:49.774Z,99.90
2022-09-22T15:18:19.462Z,99.90
2022-09-22T15:20:50.256Z,99.90
2022-09-22T15:23:22.954Z,99.90
2022-09-22T15:25:52.183Z,99.90
2022-09-22T15:28:27.056Z,99.90
2022-09-22T15:30:56.314Z,99.90
2022-09-22T15:33:25.592Z,99.90
2022-09-22T15:35:57.766Z,99.90
2022-09-22T15:38:28.826Z,99.90
2022-09-22T15:40:57.424Z,99.90
2022-09-22T15:43:31.056Z,99.90
2022-09-22T15:46:04.963Z,99.90
2022-09-22T15:48:37.107Z,99.90
2022-09-22T15:51:08.538Z,99.90
2022-09-22T15:53:37.879Z,99.90
2022-09-22T15:56:08.628Z,99.90
2022-09-22T15:58:41.492Z,99.90
2022-09-22T16:01:10.236Z,99.90
2022-09-22T16:03:41.623Z,99.90
2022-09-22T16:06:14.252Z,99.90
2022-09-22T16:08:44.855Z,99.90
2022-09-22T16:11:16.062Z,99.90
2022-09-22T16:13:48.467Z,99.90
2022-09-22T16:16:19.332Z,99.90
2022-09-22T16:18:47.984Z,99.90
2022-09-22T16:21:22.225Z,99.90
2022-09-22T16:23:53.672Z,99.90
2022-09-22T16:26:22.907Z,99.90
2022-09-22T16:28:53.342Z,99.90
2022-09-22T16:31:22.381Z,99.90
2022-09-22T16:33:54.135Z,99.90
2022-09-22T16:36:23.508Z,99.90
2022-09-22T16:38:52.013Z,99.90
2022-09-22T16:41:22.432Z,99.90
2022-09-22T16:43:53.369Z,99.90
2022-09-22T16:46:29.996Z,99.90
2022-09-22T16:49:00.440Z,99.90
2022-09-22T16:51:29.872Z,99.90
2022-09-22T16:53:58.615Z,99.90
2022-09-22T16:56:28.444Z,99.90
2022-09-22T16:59:01.266Z,99.90
2022-09-22T17:01:31.632Z,99.90
2022-09-22T17:04:00.780Z,99.90
2022-09-22T17:06:29.401Z,99.90
2022-09-22T17:08:59.486Z,99.90
2022-09-22T17:11:30.474Z,99.90
2022-09-22T17:14:01.502Z,99.90
2022-09-22T17:16:33.610Z,99.90
2022-09-22T17:19:04.405Z,99.90
2022-09-22T17:21:34.711Z,99.90
2022-09-22T17:24:05.755Z,99.90
2022-09-22T17:26:37.131Z,99.90
2022-09-22T17:29:07.460Z,99.90
2022-09-22T17:31:37.089Z,99.90
2022-09-22T17:34:06.057Z,99.90
2022-09-22T17:36:34.683Z,99.90
2022-09-22T17:39:03.318Z,99.90
2022-09-22T17:41:33.797Z,99.90
2022-09-22T17:44:03.869Z,99.90
2022-09-22T17:46:35.766Z,99.90
2022-09-22T17:49:21.832Z,99.90
2022-09-22T17:52:08.628Z,99.90
2022-09-22T17:54:56.717Z,99.90
2022-09-22T17:57:27.119Z,99.90
2022-09-22T17:59:56.941Z,99.90
2022-09-22T18:02:28.957Z,99.90
2022-09-22T18:04:57.885Z,99.90
2022-09-22T18:07:28.108Z,99.90
2022-09-22T18:09:56.716Z,99.90
2022-09-22T18:12:25.965Z,99.90
2022-09-22T18:15:01.249Z,99.90
2022-09-22T18:17:32.263Z,99.90
2022-09-22T18:20:01.265Z,99.90
2022-09-22T18:22:29.868Z,99.90
2022-09-22T18:24:58.390Z,99.90
2022-09-22T18:27:27.952Z,99.90
2022-09-22T18:29:58.723Z,99.90
2022-09-22T18:32:30.382Z,99.90
2022-09-22T18:34:58.983Z,99.90
2022-09-22T18:37:27.530Z,99.90
2022-09-22T18:39:56.072Z,99.90
2022-09-22T18:42:27.513Z,99.90
2022-09-22T18:44:56.060Z,99.90
2022-09-22T18:47:25.072Z,99.90
2022-09-22T18:49:56.473Z,99.90
2022-09-22T18:52:25.686Z,99.90
2022-09-22T18:54:55.932Z,99.90
2022-09-22T18:57:25.876Z,99.90
2022-09-22T18:59:57.725Z,99.90
2022-09-22T19:02:26.729Z,99.90
2022-09-22T19:04:56.881Z,99.90
2022-09-22T19:07:43.551Z,99.90
2022-09-22T19:10:14.435Z,99.90
2022-09-22T19:12:43.316Z,99.90
2022-09-22T19:15:15.354Z,99.90
2022-09-22T19:17:45.026Z,99.90
2022-09-22T19:20:17.268Z,99.90
2022-09-22T19:22:46.864Z,99.90
2022-09-22T19:25:16.109Z,99.90
2022-09-22T19:27:44.654Z,99.90
2022-09-22T19:30:14.096Z,99.90
2022-09-22T19:32:42.885Z,99.90
2022-09-22T19:35:12.205Z,99.90
2022-09-22T19:37:42.374Z,99.90
2022-09-22T19:40:18.502Z,99.90
2022-09-22T19:42:47.256Z,99.90
2022-09-22T19:45:16.043Z,99.90
2022-09-22T19:47:44.587Z,99.90
2022-09-22T19:50:13.172Z,99.90
2022-09-22T19:52:43.568Z,99.90
2022-09-22T19:55:12.649Z,99.90
2022-09-22T19:57:42.102Z,99.90
2022-09-22T20:00:13.109Z,99.90
2022-09-22T20:02:42.208Z,99.90
2022-09-22T20:05:20.704Z,99.90
2022-09-22T20:07:50.702Z,99.90
2022-09-22T20:10:22.538Z,99.90
2022-09-22T20:12:51.565Z,99.90
2022-09-22T20:15:20.789Z,99.90
2022-09-22T20:17:49.446Z,99.90
2022-09-22T20:20:21.605Z,99.90
2022-09-22T20:22:59.409Z,99.90
2022-09-22T20:25:30.126Z,99.90
2022-09-22T20:27:58.972Z,99.90
2022-09-22T20:30:27.915Z,99.90
2022-09-22T20:32:56.435Z,99.90
2022-09-22T20:35:25.325Z,99.90
2022-09-22T20:37:57.534Z,99.90
2022-09-22T20:40:26.967Z,99.90
2022-09-22T20:42:55.805Z,99.90
2022-09-22T20:45:24.514Z,99.90
2022-09-22T20:47:53.077Z,99.90
2022-09-22T20:50:22.209Z,99.90
2022-09-22T20:52:50.816Z,99.90
2022-09-22T20:55:22.019Z,99.90
2022-09-22T20:57:50.647Z,99.90
2022-09-22T21:00:19.337Z,99.90
2022-09-22T21:02:47.992Z,99.90
2022-09-22T21:05:16.647Z,99.90
2022-09-22T21:07:45.190Z,99.90
2022-09-22T21:10:31.182Z,99.90
2022-09-22T21:13:01.121Z,99.90
2022-09-22T21:15:29.863Z,99.90
2022-09-22T21:17:58.855Z,99.90
2022-09-22T21:20:28.236Z,99.90
2022-09-22T21:22:57.106Z,99.90
2022-09-22T21:25:26.123Z,99.90
2022-09-22T21:27:54.629Z,99.90
2022-09-22T21:30:24.506Z,99.90
2022-09-22T21:32:53.062Z,99.90
2022-09-22T21:35:21.548Z,99.90
2022-09-22T21:37:50.064Z,99.90
2022-09-22T21:40:18.826Z,99.90
2022-09-22T21:42:47.422Z,99.90
2022-09-22T21:45:16.090Z,99.90
2022-09-22T21:47:46.537Z,99.90
2022-09-22T21:50:15.355Z,99.90
2022-09-22T21:52:45.526Z,99.90
2022-09-22T21:55:14.123Z,99.90
2022-09-22T21:57:42.607Z,99.90
2022-09-22T22:00:11.981Z,99.90
2022-09-22T22:02:54.378Z,99.90
2022-09-22T22:05:24.294Z,99.90
2022-09-22T22:07:53.006Z,99.90
2022-09-22T22:10:21.516Z,99.90
2022-09-22T22:12:50.097Z,99.90
2022-09-22T22:15:18.590Z,99.90
2022-09-22T22:17:47.100Z,99.90
2022-09-22T22:20:16.110Z,99.90
2022-09-22T22:22:46.786Z,99.90
2022-09-22T22:25:17.849Z,99.90
2022-09-22T22:27:46.624Z,99.90
2022-09-22T22:30:15.265Z,99.90
2022-09-22T22:32:43.797Z,99.90
2022-09-22T22:35:12.754Z,99.90
2022-09-22T22:37:45.620Z,99.90
2022-09-22T22:40:15.570Z,99.90
2022-09-22T22:42:44.185Z,99.90
2022-09-22T22:45:12.759Z,99.90
2022-09-22T22:47:41.319Z,99.90
2022-09-22T22:50:10.931Z,99.90
2022-09-22T22:52:42.117Z,99.90
2022-09-22T22:55:10.895Z,99.90
2022-09-22T22:57:41.403Z,99.90
2022-09-22T23:00:11.373Z,99.90
2022-09-22T23:02:40.096Z,99.90
2022-09-22T23:05:09.524Z,99.90
2022-09-22T23:07:38.690Z,99.90
2022-09-22T23:10:08.313Z,99.90
2022-09-22T23:12:40.155Z,99.90
2022-09-22T23:15:11.011Z,99.90
2022-09-22T23:17:39.750Z,99.90
2022-09-22T23:20:09.330Z,99.90
2022-09-22T23:22:37.910Z,99.90
2022-09-22T23:25:06.936Z,99.90
2022-09-22T23:27:35.474Z,99.90
2022-09-22T23:30:04.074Z,99.90
2022-09-22T23:32:34.188Z,99.90
2022-09-22T23:35:02.800Z,99.90
2022-09-22T23:37:31.305Z,99.90
2022-09-22T23:39:59.821Z,99.90
2022-09-22T23:42:28.316Z,99.90
2022-09-22T23:44:56.938Z,99.90
2022-09-22T23:47:25.455Z,99.90
2022-09-22T23:49:56.431Z,99.90
2022-09-22T23:52:25.081Z,99.90
2022-09-22T23:54:53.562Z,99.90
2022-09-22T23:57:22.065Z,99.90
2022-09-22T23:59:50.622Z,99.90
